Time;durP1;ratioP1;P1;durP2;ratioP2;P2;SDS_P1;SDS_P2;PMS_P1;PMS_P2;Temp;Humidity;BMP_temperature;BMP_pressure;BME280_temperature;BME280_humidity;BME280_pressure;Samples;Min_cycle;Max_cycle;Signal;HPM_P1;HPM_P2
2022/10/05 00:01:24;;;;;;;59.22;28.40;;;8.50;99.90;;;;;;5074382;28;20027;-54
2022/10/05 00:03:51;;;;;;;60.83;27.35;;;8.40;99.90;;;;;;5074695;28;20020;-54
2022/10/05 00:06:17;;;;;;;49.97;25.40;;;8.40;99.90;;;;;;5074504;28;20031;-54
2022/10/05 00:08:44;;;;;;;46.75;22.35;;;8.30;99.90;;;;;;5074446;28;20039;-54
2022/10/05 00:11:13;;;;;;;46.25;22.05;;;8.20;99.90;;;;;;5073917;28;20033;-54
2022/10/05 00:13:39;;;;;;;40.85;20.08;;;8.20;99.90;;;;;;5074244;28;20041;-54
2022/10/05 00:16:23;;;;;;;48.72;22.73;;;8.20;99.90;;;;;;5074435;28;20029;-54
2022/10/05 00:18:51;;;;;;;46.40;23.08;;;8.20;99.90;;;;;;5074632;28;20099;-54
2022/10/05 00:21:23;;;;;;;42.28;21.50;;;8.20;99.90;;;;;;5074313;28;20385;-54
2022/10/05 00:23:50;;;;;;;35.80;18.77;;;8.20;99.90;;;;;;5074443;28;20360;-54
2022/10/05 00:26:20;;;;;;;30.48;17.48;;;8.10;99.90;;;;;;5074462;28;20123;-54
2022/10/05 00:28:46;;;;;;;32.88;17.60;;;8.10;99.90;;;;;;5074358;28;20044;-54
2022/10/05 00:31:21;;;;;;;35.10;16.38;;;8.10;99.90;;;;;;5074261;28;20028;-54
2022/10/05 00:33:48;;;;;;;31.95;16.48;;;8.00;99.90;;;;;;5073060;28;20032;-54
2022/10/05 00:36:14;;;;;;;34.17;17.15;;;8.00;99.90;;;;;;5074306;28;20111;-54
2022/10/05 00:38:41;;;;;;;30.02;16.38;;;8.00;99.90;;;;;;5074371;28;20075;-54
2022/10/05 00:41:09;;;;;;;30.40;16.10;;;8.10;99.90;;;;;;5074333;28;20025;-54
2022/10/05 00:44:06;;;;;;;28.33;15.77;;;8.10;99.90;;;;;;5074069;28;20039;-54
2022/10/05 00:46:51;;;;;;;31.10;16.83;;;8.10;99.90;;;;;;5074192;28;20029;-54
2022/10/05 00:49:34;;;;;;;30.80;15.82;;;8.10;99.90;;;;;;5074140;28;20025;-54
2022/10/05 00:52:20;;;;;;;28.17;15.05;;;7.90;99.90;;;;;;5074279;28;20025;-54
2022/10/05 00:55:12;;;;;;;32.50;15.95;;;7.80;99.90;;;;;;5074004;28;20029;-54
2022/10/05 00:57:57;;;;;;;27.10;14.52;;;7.80;99.90;;;;;;5072662;28;20032;-54
2022/10/05 01:00:25;;;;;;;28.40;15.38;;;7.80;99.90;;;;;;5072836;28;20440;-54
2022/10/05 01:03:13;;;;;;;28.33;16.02;;;7.90;99.90;;;;;;5072771;28;20058;-54
2022/10/05 01:05:57;;;;;;;31.45;15.57;;;7.90;99.90;;;;;;5073894;28;20417;-54
2022/10/05 01:08:44;;;;;;;32.83;15.95;;;7.90;99.90;;;;;;5074039;28;20394;-54
2022/10/05 01:11:21;;;;;;;32.92;15.80;;;7.80;99.90;;;;;;5073930;28;20051;-54
2022/10/05 01:14:14;;;;;;;28.65;14.82;;;7.80;99.90;;;;;;5072634;28;20518;-54
2022/10/05 01:16:52;;;;;;;36.22;15.13;;;7.80;99.90;;;;;;5073994;28;20028;-54
2022/10/05 01:19:32;;;;;;;30.92;16.20;;;7.70;99.90;;;;;;5073791;28;20463;-54
2022/10/05 01:22:03;;;;;;;;;;;7.80;99.90;;;;;;5076772;28;20033;-54
2022/10/05 01:24:41;;;;;;;29.90;14.90;;;7.70;99.90;;;;;;5082941;28;20007;-54
2022/10/05 01:27:29;;;;;;;27.73;13.75;;;7.60;99.90;;;;;;5097810;28;20264;-54
2022/10/05 01:30:12;;;;;;;25.08;13.05;;;7.60;99.90;;;;;;5097987;28;20039;-54
2022/10/05 01:32:45;;;;;;;21.15;12.70;;;7.60;99.90;;;;;;5098027;28;20028;-54
2022/10/05 01:35:33;;;;;;;26.85;14.85;;;7.60;99.90;;;;;;5097612;28;20107;-54
2022/10/05 01:38:41;;;;;;;35.00;17.15;;;7.60;99.90;;;;;;5097687;28;20081;-54
2022/10/05 01:41:28;;;;;;;37.95;19.85;;;7.60;99.90;;;;;;5015119;28;20036;-54
2022/10/05 01:44:08;;;;;;;41.78;22.17;;;7.60;99.90;;;;;;5097184;28;20036;-54
2022/10/05 01:47:04;;;;;;;38.30;21.30;;;7.60;99.90;;;;;;5080949;28;20113;-54
2022/10/05 01:50:08;;;;;;;31.27;19.23;;;7.50;99.90;;;;;;5077579;28;20039;-54
2022/10/05 01:52:55;;;;;;;30.13;16.75;;;7.40;99.90;;;;;;5022425;28;20032;-54
2022/10/05 01:55:28;;;;;;;28.88;15.25;;;7.40;99.90;;;;;;5075668;28;20425;-54
2022/10/05 01:58:07;;;;;;;28.52;14.00;;;7.30;99.90;;;;;;5075939;28;20393;-54
2022/10/05 02:01:02;;;;;;;22.25;12.57;;;7.30;99.90;;;;;;5075812;28;20048;-54
2022/10/05 02:03:40;;;;;;;26.08;13.38;;;7.30;99.90;;;;;;5075660;28;20040;-54
2022/10/05 02:06:12;;;;;;;25.27;12.20;;;7.40;99.90;;;;;;5076858;28;20500;-54
2022/10/05 02:08:42;;;;;;;22.73;11.50;;;7.30;99.90;;;;;;5075489;28;20170;-54
2022/10/05 02:11:11;;;;;;;21.10;12.60;;;7.40;99.90;;;;;;5075776;28;20033;-54
2022/10/05 02:13:51;;;;;;;29.40;14.98;;;7.40;99.90;;;;;;5075300;28;20044;-54
2022/10/05 02:16:41;;;;;;;26.83;15.32;;;7.40;99.90;;;;;;5075530;28;20548;-54
2022/10/05 02:19:29;;;;;;;28.25;14.77;;;7.30;99.90;;;;;;5076645;28;20537;-54
2022/10/05 02:22:04;;;;;;;26.55;13.63;;;7.20;99.90;;;;;;5075383;28;20402;-54
2022/10/05 02:24:38;;;;;;;27.55;14.48;;;7.30;99.90;;;;;;5075276;28;20021;-54
2022/10/05 02:27:07;;;;;;;26.38;13.63;;;7.30;99.90;;;;;;5076678;28;20023;-54
2022/10/05 02:29:38;;;;;;;26.63;13.75;;;7.30;99.90;;;;;;5074986;28;20035;-54
2022/10/05 02:32:09;;;;;;;24.35;13.73;;;7.30;99.90;;;;;;5074971;28;20032;-54
2022/10/05 02:34:42;;;;;;;26.42;15.13;;;7.20;99.90;;;;;;5074725;28;20063;-54
2022/10/05 02:37:40;;;;;;;;;;;7.30;99.90;;;;;;5075452;28;20028;-54
2022/10/05 02:40:18;;;;;;;29.73;15.40;;;7.10;99.90;;;;;;5076415;28;19908;-54
2022/10/05 02:43:25;;;;;;;31.77;14.45;;;7.00;99.90;;;;;;5074795;28;20119;-54
2022/10/05 02:46:07;;;;;;;27.92;14.10;;;6.90;99.90;;;;;;5074655;28;20029;-54
2022/10/05 02:48:36;;;;;;;27.88;14.60;;;6.80;99.90;;;;;;5076153;28;20478;-54
2022/10/05 02:51:11;;;;;;;35.90;17.75;;;6.80;99.90;;;;;;5074653;28;20486;-54
2022/10/05 02:54:11;;;;;;;35.70;20.30;;;6.70;99.90;;;;;;5074542;28;20032;-54
2022/10/05 02:56:53;;;;;;;37.85;21.83;;;6.70;99.90;;;;;;5075877;28;20449;-54
2022/10/05 02:59:34;;;;;;;33.85;19.52;;;6.70;99.90;;;;;;5074589;28;20059;-54
2022/10/05 03:02:28;;;;;;;41.40;22.25;;;6.70;99.90;;;;;;5074742;28;20028;-54
2022/10/05 03:05:09;;;;;;;33.60;18.60;;;6.70;99.90;;;;;;5074649;28;20066;-54
2022/10/05 03:07:59;;;;;;;36.13;16.00;;;6.70;99.90;;;;;;5075563;28;20055;-54
2022/10/05 03:10:33;;;;;;;29.52;15.93;;;6.70;99.90;;;;;;5075536;28;20035;-54
2022/10/05 03:13:10;;;;;;;32.33;15.80;;;6.70;99.90;;;;;;5075220;28;20526;-54
2022/10/05 03:15:48;;;;;;;27.73;15.23;;;6.70;99.90;;;;;;5074362;28;20025;-54
2022/10/05 03:18:42;;;;;;;28.20;14.63;;;6.70;99.90;;;;;;5074171;28;20028;-54
2022/10/05 03:21:38;;;;;;;29.52;14.82;;;6.70;99.90;;;;;;5074121;28;20052;-54
2022/10/05 03:24:34;;;;;;;36.00;14.63;;;6.70;99.90;;;;;;5077239;28;20123;-54
2022/10/05 03:27:06;;;;;;;23.58;13.68;;;6.60;99.90;;;;;;5095465;28;20107;-54
2022/10/05 03:29:38;;;;;;;26.77;15.38;;;6.60;99.90;;;;;;5094273;28;20027;-54
2022/10/05 03:32:23;;;;;;;24.67;13.07;;;6.60;99.90;;;;;;5094259;28;20040;-54
2022/10/05 03:35:12;;;;;;;26.23;14.20;;;6.60;99.90;;;;;;5095669;28;20031;-54
2022/10/05 03:37:52;;;;;;;23.23;13.20;;;6.60;99.90;;;;;;5094226;28;20054;-54
2022/10/05 03:40:41;;;;;;;25.23;14.23;;;6.60;99.90;;;;;;5094111;28;20131;-54
2022/10/05 03:43:38;;;;;;;23.80;12.23;;;6.50;99.90;;;;;;5093888;28;20417;-54
2022/10/05 03:46:28;;;;;;;22.55;12.82;;;6.50;99.90;;;;;;5083045;28;20036;-54
2022/10/05 03:49:10;;;;;;;25.50;12.63;;;6.40;99.90;;;;;;5073582;28;20039;-54
2022/10/05 03:51:45;;;;;;;24.35;12.38;;;6.40;99.90;;;;;;5073655;28;20266;-54
2022/10/05 03:54:24;;;;;;;23.48;12.93;;;6.30;99.90;;;;;;5074706;28;20031;-54
2022/10/05 03:57:14;;;;;;;26.92;13.75;;;6.50;99.90;;;;;;5074695;28;20099;-54
2022/10/05 04:00:14;;;;;;;26.92;14.00;;;6.40;99.90;;;;;;5073449;28;20032;-54
2022/10/05 04:02:59;;;;;;;26.58;14.02;;;6.40;99.90;;;;;;5069499;28;20100;-54
2022/10/05 04:05:43;;;;;;;24.67;14.63;;;6.40;99.90;;;;;;5073314;28;20060;-54
2022/10/05 04:08:25;;;;;;;26.13;14.80;;;6.30;99.90;;;;;;5073223;28;20036;-54
2022/10/05 04:10:55;;;;;;;29.88;14.48;;;6.40;99.90;;;;;;5073176;28;20035;-54
2022/10/05 04:13:25;;;;;;;32.17;16.00;;;6.50;99.90;;;;;;5074596;28;20056;-54
2022/10/05 04:16:13;;;;;;;31.52;14.30;;;6.50;99.90;;;;;;5073227;28;20058;-54
2022/10/05 04:18:50;;;;;;;32.35;17.10;;;6.50;99.90;;;;;;5073084;28;20024;-54
2022/10/05 04:22:14;;;;;;;30.08;16.63;;;6.50;99.90;;;;;;5074643;28;20064;-54
2022/10/05 04:24:52;;;;;;;37.30;17.27;;;6.50;99.90;;;;;;4998488;28;20025;-54
2022/10/05 04:27:22;;;;;;;34.92;17.45;;;6.60;99.90;;;;;;4995836;28;20125;-54
2022/10/05 04:29:52;;;;;;;28.38;15.10;;;6.40;99.90;;;;;;4995592;28;20034;-54
2022/10/05 04:32:38;;;;;;;29.73;16.20;;;6.40;99.90;;;;;;5012125;28;20045;-54
2022/10/05 04:35:37;;;;;;;28.45;14.27;;;6.40;99.90;;;;;;4995736;28;20033;-54
2022/10/05 04:38:25;;;;;;;23.02;13.38;;;6.40;99.90;;;;;;4995743;28;20037;-54
2022/10/05 04:41:13;;;;;;;34.92;16.10;;;6.30;99.90;;;;;;4995804;28;20488;-54
2022/10/05 04:44:11;;;;;;;34.58;17.45;;;6.20;99.90;;;;;;5028549;28;20520;-54
2022/10/05 04:47:22;;;;;;;27.67;14.52;;;6.20;99.90;;;;;;5013228;28;20035;-54
2022/10/05 04:50:25;;;;;;;34.25;18.30;;;6.10;99.90;;;;;;4918687;29;20115;-54
2022/10/05 04:53:16;;;;;;;35.10;19.15;;;6.10;99.90;;;;;;4976058;28;20042;-54
2022/10/05 04:55:55;;;;;;;31.73;17.20;;;6.20;99.90;;;;;;4992859;28;20070;-54
2022/10/05 04:58:43;;;;;;;35.22;20.67;;;6.10;99.90;;;;;;5006022;28;20037;-54
2022/10/05 05:01:29;;;;;;;36.88;19.60;;;6.10;99.90;;;;;;5056967;28;20037;-54
2022/10/05 05:04:19;;;;;;;30.40;17.83;;;6.10;99.90;;;;;;5056723;28;20028;-54
2022/10/05 05:06:59;;;;;;;37.13;17.77;;;6.20;99.90;;;;;;5055680;28;20036;-54
2022/10/05 05:09:47;;;;;;;37.28;17.05;;;6.30;99.90;;;;;;5056704;28;20037;-54
2022/10/05 05:12:36;;;;;;;35.55;17.95;;;6.40;99.90;;;;;;5057445;28;20044;-54
2022/10/05 05:15:25;;;;;;;39.75;17.42;;;6.50;99.90;;;;;;5065874;28;20485;-54
2022/10/05 05:17:57;;;;;;;43.53;18.15;;;6.60;99.90;;;;;;5029605;28;20032;-54
2022/10/05 05:20:41;;;;;;;42.33;20.63;;;6.70;99.90;;;;;;5066552;28;20115;-54
2022/10/05 05:23:30;;;;;;;46.17;20.63;;;6.60;99.90;;;;;;5067724;28;20033;-54
2022/10/05 05:26:07;;;;;;;45.33;18.60;;;6.80;99.90;;;;;;5107310;28;20313;-54
2022/10/05 05:28:45;;;;;;;41.58;19.40;;;7.00;99.90;;;;;;5076970;28;20040;-54
2022/10/05 05:31:22;;;;;;;52.03;20.80;;;7.30;99.90;;;;;;5074132;28;20096;-54
2022/10/05 05:34:22;;;;;;;55.40;23.50;;;7.40;99.90;;;;;;5067559;28;20021;-54
2022/10/05 05:37:16;;;;;;;61.10;28.20;;;7.70;99.90;;;;;;5073383;28;20020;-54
2022/10/05 05:40:11;;;;;;;67.90;27.67;;;8.10;99.90;;;;;;5058964;28;20078;-54
2022/10/05 05:43:01;;;;;;;74.50;30.35;;;8.50;99.90;;;;;;5074521;28;20033;-54
2022/10/05 05:45:50;;;;;;;61.45;26.90;;;8.60;99.90;;;;;;5063990;28;20037;-54
2022/10/05 05:48:26;;;;;;;58.50;26.67;;;8.90;99.90;;;;;;5069601;28;20531;-54
2022/10/05 05:51:11;;;;;;;58.83;26.67;;;8.90;99.90;;;;;;5061579;28;20119;-54
2022/10/05 05:53:37;;;;;;;59.13;25.05;;;8.90;99.90;;;;;;5072723;28;20028;-54
2022/10/05 05:56:09;;;;;;;52.55;23.65;;;9.10;99.90;;;;;;5072074;28;20039;-54
2022/10/05 05:58:49;;;;;;;61.60;25.35;;;9.10;99.90;;;;;;5074034;28;20020;-54
2022/10/05 06:01:36;;;;;;;66.80;28.35;;;9.20;99.90;;;;;;5098348;28;20119;-55
2022/10/05 06:04:14;;;;;;;43.05;21.98;;;9.30;99.90;;;;;;5065314;28;20068;-54
2022/10/05 06:06:52;;;;;;;57.78;24.52;;;9.50;99.90;;;;;;5068923;28;20417;-54
2022/10/05 06:09:22;;;;;;;54.28;21.70;;;9.40;99.90;;;;;;5065591;28;20089;-54
2022/10/05 06:12:11;;;;;;;51.58;22.55;;;9.50;99.90;;;;;;5071513;28;20068;-55
2022/10/05 06:15:10;;;;;;;53.65;22.50;;;9.60;99.90;;;;;;5055227;28;20067;-55
2022/10/05 06:17:47;;;;;;;60.40;24.63;;;10.10;99.90;;;;;;5060400;28;20045;-55
2022/10/05 06:20:27;;;;;;;78.03;25.85;;;10.60;99.90;;;;;;5075226;28;20032;-54
2022/10/05 06:22:59;;;;;;;60.78;24.20;;;10.70;99.90;;;;;;5075125;28;20525;-55
2022/10/05 06:25:54;;;;;;;64.07;25.70;;;10.80;99.90;;;;;;5072838;28;20052;-55
2022/10/05 06:28:23;;;;;;;64.32;27.52;;;11.20;99.90;;;;;;5070581;28;20032;-54
2022/10/05 06:31:28;;;;;;;63.38;27.83;;;11.40;99.90;;;;;;5073482;28;20033;-55
2022/10/05 06:34:06;;;;;;;60.33;28.27;;;11.60;99.90;;;;;;5056953;28;20025;-54
2022/10/05 06:36:54;;;;;;;54.15;25.33;;;11.90;99.90;;;;;;5071309;28;20032;-54
2022/10/05 06:39:40;;;;;;;67.35;29.05;;;12.00;99.90;;;;;;5059025;28;20111;-55
2022/10/05 06:42:33;;;;;;;61.00;27.52;;;12.30;99.90;;;;;;5074654;28;20505;-55
2022/10/05 06:45:59;;;;;;;63.95;28.58;;;12.70;99.90;;;;;;5036027;28;20045;-55
2022/10/05 06:49:09;;;;;;;63.53;30.42;;;13.00;99.90;;;;;;5037015;28;20024;-55
2022/10/05 06:52:18;;;;;;;68.55;31.88;;;13.20;99.90;;;;;;5065963;28;20047;-55
2022/10/05 06:54:53;;;;;;;70.60;32.50;;;13.70;99.90;;;;;;5073612;28;20031;-54
2022/10/05 06:57:32;;;;;;;73.53;29.02;;;13.80;98.10;;;;;;5073504;28;20413;-54
2022/10/05 07:00:15;;;;;;;67.47;30.40;;;14.00;97.80;;;;;;5073535;28;20028;-55
2022/10/05 07:03:13;;;;;;;67.90;32.42;;;14.60;96.60;;;;;;5072783;28;20052;-55
2022/10/05 07:06:02;;;;;;;63.03;31.95;;;15.10;94.90;;;;;;5075012;28;20039;-55
2022/10/05 07:08:54;;;;;;;66.80;33.47;;;15.30;92.80;;;;;;5074131;28;20067;-55
2022/10/05 07:11:56;;;;;;;74.80;35.50;;;15.20;93.50;;;;;;5073435;28;20029;-55
2022/10/05 07:14:51;;;;;;;67.40;35.85;;;15.50;91.70;;;;;;5073240;28;20123;-55
2022/10/05 07:17:30;;;;;;;68.72;36.45;;;15.60;91.40;;;;;;5068551;28;20071;-55
2022/10/05 07:20:29;;;;;;;69.45;35.88;;;16.50;90.70;;;;;;5071638;28;20050;-55
2022/10/05 07:23:08;;;;;;;60.25;30.10;;;17.00;89.30;;;;;;5074151;28;20046;-55
2022/10/05 07:25:46;;;;;;;59.58;32.38;;;17.20;85.30;;;;;;5088188;28;20551;-56
2022/10/05 07:28:32;;;;;;;55.05;29.52;;;16.70;88.00;;;;;;5095338;28;20473;-55
2022/10/05 07:31:32;;;;;;;59.38;29.70;;;17.30;84.10;;;;;;5077144;28;20074;-55
2022/10/05 07:34:25;;;;;;;70.93;30.08;;;17.40;82.40;;;;;;5095064;28;20024;-56
2022/10/05 07:40:08;;;;;;;62.17;29.17;;;18.00;82.00;;;;;;5067916;28;20494;-56
2022/10/05 07:42:55;;;;;;;76.85;31.05;;;18.20;79.50;;;;;;5053825;28;20041;-55
2022/10/05 07:45:32;;;;;;;54.28;27.35;;;18.30;77.80;;;;;;5064604;28;20371;-56
2022/10/05 07:48:11;;;;;;;64.60;26.92;;;18.90;76.90;;;;;;5056812;28;20071;-55
2022/10/05 07:50:57;;;;;;;48.22;26.85;;;19.20;77.60;;;;;;5054753;28;20036;-55
2022/10/05 07:53:30;;;;;;;54.40;26.73;;;19.50;73.50;;;;;;5073804;28;20107;-55
2022/10/05 07:56:02;;;;;;;63.33;27.08;;;19.80;73.30;;;;;;5074501;28;20119;-55
2022/10/05 07:58:41;;;;;;;52.08;25.83;;;19.50;72.70;;;;;;5072458;28;20426;-56
2022/10/05 08:01:26;;;;;;;46.63;23.33;;;19.70;74.00;;;;;;5074445;28;20115;-56
2022/10/05 08:04:07;;;;;;;52.63;25.17;;;20.30;71.10;;;;;;5071074;28;20035;-55
2022/10/05 08:06:54;;;;;;;50.05;22.35;;;20.80;68.80;;;;;;5074444;28;20052;-56
2022/10/05 08:09:30;;;;;;;35.97;19.98;;;21.00;68.30;;;;;;5074185;28;20033;-56
2022/10/05 08:12:20;;;;;;;43.85;21.20;;;20.60;68.20;;;;;;5058619;28;20023;-56
2022/10/05 08:15:25;;;;;;;34.95;18.55;;;20.70;68.80;;;;;;5073538;28;20031;-56
2022/10/05 08:18:00;;;;;;;36.10;17.98;;;21.50;66.80;;;;;;5055420;28;20115;-56
2022/10/05 08:20:32;;;;;;;41.20;18.88;;;20.90;64.70;;;;;;5067673;28;20044;-56
2022/10/05 08:23:08;;;;;;;36.00;17.40;;;21.10;63.40;;;;;;5073678;28;20027;-56
2022/10/05 08:25:58;;;;;;;32.85;16.95;;;21.50;65.20;;;;;;5073690;28;20119;-56
2022/10/05 08:28:32;;;;;;;35.53;15.70;;;22.10;62.40;;;;;;5074255;28;20496;-56
2022/10/05 08:31:25;;;;;;;34.40;15.93;;;21.40;62.50;;;;;;5071681;28;20064;-56
2022/10/05 08:34:20;;;;;;;33.97;18.17;;;22.00;62.40;;;;;;5053319;28;20032;-56
2022/10/05 08:37:19;;;;;;;36.53;16.33;;;22.70;61.20;;;;;;5059030;28;20398;-56
2022/10/05 08:40:10;;;;;;;30.80;16.92;;;22.70;58.60;;;;;;5074718;28;20082;-56
2022/10/05 08:43:01;;;;;;;40.35;19.15;;;22.80;58.30;;;;;;5073863;28;20024;-56
2022/10/05 08:45:49;;;;;;;26.90;16.27;;;22.60;61.00;;;;;;5067751;28;20025;-56
2022/10/05 08:48:24;;;;;;;42.10;16.90;;;22.70;60.10;;;;;;5069059;28;20394;-56
2022/10/05 08:51:15;;;;;;;26.77;13.15;;;23.10;58.70;;;;;;5067746;28;20029;-56
2022/10/05 08:54:03;;;;;;;23.95;14.35;;;23.50;57.20;;;;;;5068796;28;20073;-56
2022/10/05 08:56:38;;;;;;;28.50;14.85;;;23.40;56.50;;;;;;5067914;28;20502;-56
2022/10/05 08:59:41;;;;;;;33.15;15.43;;;23.10;57.00;;;;;;5070134;28;20021;-56
2022/10/05 09:02:18;;;;;;;34.90;14.93;;;23.80;55.60;;;;;;5074529;28;20020;-56
2022/10/05 09:04:56;;;;;;;35.33;14.60;;;23.90;56.50;;;;;;5073995;28;20033;-56
2022/10/05 09:07:45;;;;;;;21.83;12.43;;;24.20;54.40;;;;;;5073875;28;20101;-56
2022/10/05 09:10:35;;;;;;;32.92;12.43;;;24.40;53.40;;;;;;5060860;28;20086;-56
2022/10/05 09:13:23;;;;;;;26.65;12.20;;;24.80;53.30;;;;;;5070743;28;20040;-56
2022/10/05 09:15:59;;;;;;;22.25;11.02;;;25.30;52.70;;;;;;5057091;28;20029;-56
2022/10/05 09:19:03;;;;;;;19.20;8.80;;;25.60;52.00;;;;;;5064700;28;20520;-56
2022/10/05 09:21:35;;;;;;;27.73;9.68;;;24.30;50.80;;;;;;4991463;28;20026;-56
2022/10/05 09:24:13;;;;;;;24.20;9.85;;;23.90;52.80;;;;;;4992418;28;20059;-56
2022/10/05 09:26:57;;;;;;;24.98;9.00;;;24.50;50.50;;;;;;4987084;28;20035;-56
2022/10/05 09:30:10;;;;;;;29.67;9.50;;;24.00;51.00;;;;;;4991853;28;20038;-56
2022/10/05 09:32:51;;;;;;;21.67;7.82;;;24.10;51.30;;;;;;4939431;28;20043;-56
2022/10/05 09:35:22;;;;;;;15.07;7.28;;;24.00;50.00;;;;;;4985290;28;20030;-56
2022/10/05 09:38:19;;;;;;;17.70;7.28;;;23.80;49.60;;;;;;4992234;28;20034;-56
2022/10/05 09:41:03;;;;;;;25.15;8.68;;;24.90;49.00;;;;;;4991880;28;20044;-56
2022/10/05 09:43:47;;;;;;;13.43;6.22;;;25.20;47.80;;;;;;4994911;28;20034;-56
2022/10/05 09:46:31;;;;;;;11.35;5.18;;;24.60;45.90;;;;;;4987910;28;20045;-56
2022/10/05 09:49:38;;;;;;;15.10;5.82;;;24.30;47.20;;;;;;4994673;28;20034;-57
2022/10/05 09:52:45;;;;;;;19.45;5.70;;;25.40;46.30;;;;;;5025950;28;20084;-56
2022/10/05 09:55:38;;;;;;;29.63;6.18;;;26.10;43.10;;;;;;5060446;28;20041;-56
2022/10/05 09:58:28;;;;;;;11.80;4.93;;;26.60;43.90;;;;;;5056901;28;20382;-56
2022/10/05 10:01:10;;;;;;;28.08;6.60;;;26.30;42.00;;;;;;5072162;28;20060;-56
2022/10/05 10:03:39;;;;;;;7.05;2.88;;;25.80;43.10;;;;;;5074677;28;20032;-57
2022/10/05 10:06:16;;;;;;;10.43;3.35;;;25.80;37.80;;;;;;5062634;28;20478;-56
2022/10/05 10:09:17;;;;;;;8.75;4.10;;;25.60;40.10;;;;;;5056990;28;20033;-56
2022/10/05 10:11:43;;;;;;;18.92;5.22;;;26.10;40.30;;;;;;5075380;28;20047;-56
2022/10/05 10:14:38;;;;;;;8.95;4.25;;;27.20;41.40;;;;;;5076385;28;20360;-56
2022/10/05 10:17:54;;;;;;;9.38;5.53;;;27.70;37.70;;;;;;5076650;28;20017;-56
2022/10/05 10:20:58;;;;;;;10.60;4.93;;;27.50;38.80;;;;;;4986746;28;20038;-56
2022/10/05 10:23:57;;;;;;;9.50;4.43;;;27.00;39.20;;;;;;5012488;28;20266;-56
2022/10/05 10:26:32;;;;;;;13.98;5.55;;;26.70;38.90;;;;;;4986156;28;20077;-57
2022/10/05 10:29:15;;;;;;;15.77;4.82;;;26.20;40.30;;;;;;5014179;28;20538;-57
2022/10/05 10:31:43;;;;;;;11.88;5.00;;;26.70;42.70;;;;;;5013744;28;20038;-56
2022/10/05 10:34:18;;;;;;;13.07;5.07;;;26.40;40.60;;;;;;5013877;28;20040;-56
2022/10/05 10:37:24;;;;;;;9.68;5.03;;;26.70;39.20;;;;;;5014148;28;20048;-56
2022/10/05 10:40:07;;;;;;;12.30;5.22;;;26.90;40.50;;;;;;5013044;28;20065;-56
2022/10/05 10:42:52;;;;;;;11.98;5.22;;;26.30;39.60;;;;;;5013580;28;20037;-56
2022/10/05 10:45:31;;;;;;;12.45;5.60;;;26.90;42.20;;;;;;5013441;28;20042;-56
2022/10/05 10:48:03;;;;;;;8.02;4.07;;;27.20;38.60;;;;;;5013802;28;20078;-56
2022/10/05 10:50:57;;;;;;;9.95;5.20;;;26.80;37.60;;;;;;5028641;28;20052;-56
2022/10/05 10:53:53;;;;;;;12.18;5.40;;;26.20;39.50;;;;;;5074501;28;20032;-56
2022/10/05 10:56:27;;;;;;;22.20;5.80;;;26.60;41.00;;;;;;5076236;28;20103;-56
2022/10/05 10:59:23;;;;;;;6.45;2.70;;;26.10;37.40;;;;;;5075827;28;20032;-56
2022/10/05 11:02:09;;;;;;;14.70;4.25;;;25.00;39.00;;;;;;5075520;28;20025;-56
2022/10/05 11:05:12;;;;;;;17.63;3.88;;;25.00;41.30;;;;;;5075460;28;20413;-56
2022/10/05 11:07:59;;;;;;;8.27;3.88;;;26.30;40.90;;;;;;5055502;28;20040;-56
2022/10/05 11:10:34;;;;;;;41.47;7.68;;;26.60;37.80;;;;;;5055567;28;20064;-56
2022/10/05 11:13:31;;;;;;;12.98;3.58;;;26.80;37.00;;;;;;5054709;28;20056;-56
2022/10/05 11:16:16;;;;;;;13.65;3.95;;;27.50;39.00;;;;;;5056292;28;20628;-56
2022/10/05 11:19:01;;;;;;;16.17;4.85;;;26.30;34.40;;;;;;5068835;28;20028;-56
2022/10/05 11:21:35;;;;;;;3.78;2.05;;;26.20;35.00;;;;;;5075456;28;20027;-56
2022/10/05 11:24:23;;;;;;;17.45;3.35;;;26.20;35.70;;;;;;5075010;28;20036;-56
2022/10/05 11:27:04;;;;;;;18.73;3.53;;;25.90;38.80;;;;;;5075334;28;20109;-56
2022/10/05 11:29:43;;;;;;;7.07;3.92;;;26.60;36.10;;;;;;5074828;28;20067;-56
2022/10/05 11:32:52;;;;;;;12.68;4.75;;;26.70;37.60;;;;;;5075092;28;20024;-56
2022/10/05 11:35:46;;;;;;;15.73;5.75;;;26.60;38.70;;;;;;5032046;28;20515;-56
2022/10/05 11:38:24;;;;;;;14.75;4.70;;;26.20;37.50;;;;;;5074855;28;20068;-56
2022/10/05 11:41:11;;;;;;;11.93;3.97;;;26.20;39.00;;;;;;5075024;28;20024;-56
2022/10/05 11:43:41;;;;;;;11.38;3.92;;;26.50;38.50;;;;;;5074601;28;20047;-56
2022/10/05 11:46:15;;;;;;;13.27;4.43;;;26.90;37.70;;;;;;5074783;28;20078;-56
2022/10/05 11:48:47;;;;;;;11.73;4.03;;;27.00;38.90;;;;;;5074693;28;20037;-56
2022/10/05 11:51:28;;;;;;;9.43;2.83;;;26.40;37.10;;;;;;5074565;28;20489;-57
2022/10/05 11:54:09;;;;;;;14.43;5.18;;;26.40;37.40;;;;;;5054274;28;20485;-56
2022/10/05 11:56:40;;;;;;;21.63;6.35;;;26.70;37.60;;;;;;5054587;28;20025;-56
2022/10/05 11:59:22;;;;;;;27.77;7.40;;;26.80;35.40;;;;;;5054688;28;20265;-56
2022/10/05 12:02:03;;;;;;;6.93;2.85;;;26.90;36.20;;;;;;5054698;28;20025;-56
2022/10/05 12:04:47;;;;;;;11.10;2.63;;;26.40;34.10;;;;;;5054194;28;20352;-56
2022/10/05 12:07:38;;;;;;;9.63;3.30;;;25.80;36.40;;;;;;5065522;28;20020;-56
2022/10/05 12:10:22;;;;;;;;;;;25.90;37.00;;;;;;5054923;28;20037;-57
2022/10/05 12:13:19;;;;;;;12.63;4.05;;;26.00;36.30;;;;;;5054197;28;19916;-56
2022/10/05 12:16:11;;;;;;;14.60;3.30;;;26.40;36.20;;;;;;5054495;28;20087;-56
2022/10/05 12:18:56;;;;;;;19.75;4.43;;;26.20;34.90;;;;;;5066199;28;20016;-56
2022/10/05 12:21:33;;;;;;;7.35;2.17;;;25.90;35.90;;;;;;5053875;28;20032;-56
2022/10/05 12:24:25;;;;;;;7.55;2.40;;;25.10;36.10;;;;;;5056373;28;20470;-56
2022/10/05 12:26:54;;;;;;;9.77;3.55;;;25.40;36.30;;;;;;5093934;28;20028;-56
2022/10/05 12:29:31;;;;;;;12.85;3.15;;;26.00;37.50;;;;;;5094346;28;20585;-56
2022/10/05 12:31:56;;;;;;;13.07;3.50;;;26.10;38.20;;;;;;5094518;28;20416;-56
2022/10/05 12:34:58;;;;;;;28.55;4.78;;;25.80;34.60;;;;;;5084428;28;20031;-56
2022/10/05 12:37:36;;;;;;;9.85;2.92;;;26.10;35.40;;;;;;5054241;28;20493;-56
2022/10/05 12:40:12;;;;;;;12.10;3.03;;;26.50;36.70;;;;;;5057577;28;20044;-56
2022/10/05 12:43:03;;;;;;;6.40;2.45;;;26.60;36.80;;;;;;5068023;28;20091;-56
2022/10/05 12:45:44;;;;;;;12.38;3.40;;;25.40;36.70;;;;;;5045177;28;20044;-56
2022/10/05 12:48:23;;;;;;;17.08;4.38;;;26.20;38.60;;;;;;5073799;28;20125;-56
2022/10/05 12:50:57;;;;;;;15.63;4.15;;;26.80;37.10;;;;;;5069602;28;20032;-56
2022/10/05 12:53:56;;;;;;;6.07;2.60;;;26.70;37.80;;;;;;5068613;28;20032;-56
2022/10/05 12:56:41;;;;;;;2.35;1.63;;;26.70;39.20;;;;;;5059670;28;20025;-56
2022/10/05 12:59:19;;;;;;;4.70;1.73;;;26.80;37.80;;;;;;5063450;28;20031;-56
2022/10/05 13:02:03;;;;;;;11.30;3.88;;;26.90;38.80;;;;;;5070256;28;20036;-56
2022/10/05 13:04:37;;;;;;;5.30;2.05;;;27.20;35.60;;;;;;5073514;28;20409;-56
2022/10/05 13:07:20;;;;;;;4.78;2.28;;;26.90;34.40;;;;;;5060880;28;20704;-56
2022/10/05 13:09:57;;;;;;;7.13;2.60;;;25.90;34.20;;;;;;5066625;28;20039;-56
2022/10/05 13:12:34;;;;;;;6.07;2.88;;;24.60;36.60;;;;;;5065962;28;20101;-56
2022/10/05 13:15:31;;;;;;;6.38;2.35;;;25.20;37.40;;;;;;5066230;28;20032;-56
2022/10/05 13:18:05;;;;;;;4.15;1.85;;;25.30;39.80;;;;;;5065343;28;20021;-56
2022/10/05 13:20:34;;;;;;;7.43;3.55;;;24.90;37.80;;;;;;5072653;28;20409;-56
2022/10/05 13:23:23;;;;;;;9.23;3.45;;;24.60;37.90;;;;;;5077187;28;20029;-56
2022/10/05 13:26:09;;;;;;;8.80;2.85;;;24.30;40.70;;;;;;5068015;28;20097;-56
2022/10/05 13:29:14;;;;;;;6.10;2.28;;;24.10;41.70;;;;;;5077718;28;20029;-56
2022/10/05 13:31:50;;;;;;;22.42;5.20;;;23.60;42.10;;;;;;5068996;28;20091;-56
2022/10/05 13:34:34;;;;;;;20.40;3.50;;;24.10;43.40;;;;;;5077453;28;20063;-56
2022/10/05 13:37:25;;;;;;;16.88;3.88;;;23.70;45.00;;;;;;5077562;28;20425;-56
2022/10/05 13:39:59;;;;;;;8.93;2.67;;;23.60;44.70;;;;;;5077357;28;20059;-56
2022/10/05 13:42:47;;;;;;;10.30;3.97;;;23.80;41.60;;;;;;5077275;28;20039;-56
2022/10/05 13:45:44;;;;;;;7.30;2.95;;;24.00;43.80;;;;;;5077437;28;20044;-56
2022/10/05 13:48:23;;;;;;;14.18;3.33;;;23.90;40.50;;;;;;5059528;28;20044;-56
2022/10/05 13:51:21;;;;;;;7.60;2.50;;;23.60;41.70;;;;;;5076865;28;20476;-56
2022/10/05 13:53:55;;;;;;;9.68;3.67;;;23.60;40.40;;;;;;5075438;28;20043;-56
2022/10/05 13:56:25;;;;;;;27.83;7.72;;;24.20;39.70;;;;;;5076646;28;20035;-56
2022/10/05 13:59:04;;;;;;;12.95;3.38;;;24.00;40.40;;;;;;5076753;28;20020;-56
2022/10/05 14:01:55;;;;;;;6.60;2.28;;;23.80;40.50;;;;;;5076640;28;20394;-56
2022/10/05 14:04:26;;;;;;;16.23;4.10;;;24.00;39.70;;;;;;5076396;28;20071;-56
2022/10/05 14:06:52;;;;;;;4.93;2.55;;;23.80;41.80;;;;;;5075368;28;20036;-56